Terminal Aerodrome Forecast
Issued by NWS

Home | Current Version | Previous Version | Text Only | Print | Product List | Glossary On
Versions: 1 2 3 4 5 6 7 8 9 10 11 12
000
FTUS46 KMTR 171128
TAFMRY
TAF
KMRY 171128Z 1712/1812 12004KT P6SM BKN250
     FM171800 28008KT 6SM FU FEW040 BKN250
     FM172100 24006KT 5SM FU SCT050 BKN250
     FM180400 14003KT 6SM HZ FEW008 SCT040 BKN250
      TEMPO 1804/1808 5SM HZ BR BKN008 OVC040
     FM180800 14003KT 5SM HZ BR OVC008=

USA.gov is the U.S. government's official web portal to all federal, state and local government web resources and services.